createdAt,value
2022-10-22T00:02:20.040Z,28.98
2022-10-22T00:05:41.679Z,31.63
2022-10-22T00:09:03.353Z,33.08
2022-10-22T00:12:25.074Z,29.15
2022-10-22T00:15:46.620Z,28.02
2022-10-22T00:19:11.101Z,31.02
2022-10-22T00:22:32.542Z,30.05
2022-10-22T00:25:55.270Z,28.45
2022-10-22T00:29:18.687Z,29.38
2022-10-22T00:32:40.452Z,28.77
2022-10-22T00:36:03.491Z,33.28
2022-10-22T00:39:27.034Z,26.00
2022-10-22T00:42:48.617Z,29.42
2022-10-22T00:46:09.990Z,25.75
2022-10-22T00:49:31.831Z,27.75
2022-10-22T00:52:56.139Z,30.77
2022-10-22T00:56:18.690Z,26.42
2022-10-22T00:59:40.559Z,25.38
2022-10-22T01:03:03.025Z,27.60
2022-10-22T01:06:27.723Z,26.90
2022-10-22T01:10:04.427Z,28.80
2022-10-22T01:13:36.634Z,28.35
2022-10-22T01:17:05.947Z,27.13
2022-10-22T01:20:52.600Z,27.70
2022-10-22T01:24:36.604Z,24.80
2022-10-22T01:28:11.574Z,29.13
2022-10-22T01:31:40.546Z,27.50
2022-10-22T01:35:05.335Z,33.45
2022-10-22T01:38:28.165Z,25.88
2022-10-22T01:41:49.942Z,26.40
2022-10-22T01:45:13.610Z,27.38
2022-10-22T01:48:47.278Z,25.92
2022-10-22T01:52:16.452Z,23.42
2022-10-22T01:55:47.270Z,25.83
2022-10-22T01:59:17.333Z,23.52
2022-10-22T02:02:44.976Z,21.15
2022-10-22T02:06:15.571Z,22.55
2022-10-22T02:09:38.895Z,22.25
2022-10-22T02:13:02.120Z,24.08
2022-10-22T02:16:28.080Z,28.65
2022-10-22T02:19:54.766Z,23.27
2022-10-22T02:23:18.139Z,20.00
2022-10-22T02:26:43.798Z,24.70
2022-10-22T02:30:09.708Z,23.05
2022-10-22T02:33:36.609Z,21.75
2022-10-22T02:37:00.866Z,20.20
2022-10-22T02:40:24.262Z,23.05
2022-10-22T02:43:49.893Z,23.52
2022-10-22T02:47:11.328Z,23.45
2022-10-22T02:50:33.023Z,22.50
2022-10-22T02:53:54.323Z,24.27
2022-10-22T02:57:17.133Z,20.05
2022-10-22T03:00:38.584Z,22.85
2022-10-22T03:04:00.413Z,24.13
2022-10-22T03:07:21.701Z,23.90
2022-10-22T03:10:44.330Z,25.23
2022-10-22T03:14:07.257Z,26.13
2022-10-22T03:17:28.612Z,23.42
2022-10-22T03:20:50.558Z,24.85
2022-10-22T03:24:14.476Z,22.77
2022-10-22T03:27:37.952Z,22.33
2022-10-22T03:31:01.494Z,25.23
2022-10-22T03:34:22.992Z,22.70
2022-10-22T03:37:44.619Z,25.10
2022-10-22T03:41:06.181Z,21.70
2022-10-22T03:44:29.068Z,26.52
2022-10-22T03:47:52.071Z,22.20
2022-10-22T03:51:13.625Z,22.30
2022-10-22T03:54:35.150Z,23.67
2022-10-22T03:57:56.521Z,22.70
2022-10-22T04:01:17.921Z,21.13
2022-10-22T04:04:41.083Z,21.35
2022-10-22T04:08:02.253Z,22.63
2022-10-22T04:11:23.588Z,23.05
2022-10-22T04:14:44.988Z,22.05
2022-10-22T04:18:06.332Z,22.63
2022-10-22T04:21:30.992Z,21.33
2022-10-22T04:24:52.318Z,23.02
2022-10-22T04:28:14.231Z,23.38
2022-10-22T04:31:35.750Z,23.40
2022-10-22T04:34:57.215Z,19.27
2022-10-22T04:38:19.786Z,20.35
2022-10-22T04:41:41.039Z,21.52
2022-10-22T04:45:02.243Z,20.98
2022-10-22T04:48:23.590Z,23.67
2022-10-22T04:51:45.336Z,22.55
2022-10-22T04:55:09.443Z,25.40
2022-10-22T04:58:31.310Z,18.20
2022-10-22T05:01:53.463Z,21.67
2022-10-22T05:05:15.102Z,23.58
2022-10-22T05:08:37.729Z,19.38
2022-10-22T05:12:00.912Z,19.75
2022-10-22T05:15:22.816Z,17.85
2022-10-22T05:18:46.017Z,19.73
2022-10-22T05:22:07.916Z,20.02
2022-10-22T05:25:29.217Z,20.15
2022-10-22T05:28:53.270Z,18.35
2022-10-22T05:32:15.288Z,17.23
2022-10-22T05:35:37.053Z,23.23
2022-10-22T05:38:58.649Z,19.50
2022-10-22T05:42:20.071Z,22.13
2022-10-22T05:45:43.885Z,17.27
2022-10-22T05:49:07.773Z,18.85
2022-10-22T05:52:29.544Z,18.38
2022-10-22T05:55:51.262Z,16.08
2022-10-22T05:59:13.236Z,19.73
2022-10-22T06:02:36.531Z,16.38
2022-10-22T06:05:57.853Z,18.52
2022-10-22T06:09:24.826Z,18.95
2022-10-22T06:12:48.643Z,17.30
2022-10-22T06:16:10.636Z,20.92
2022-10-22T06:19:33.554Z,20.23
2022-10-22T06:22:55.146Z,16.80
2022-10-22T06:26:17.902Z,17.23
2022-10-22T06:29:39.874Z,18.20
2022-10-22T06:33:01.691Z,18.83
2022-10-22T06:36:25.962Z,18.35
2022-10-22T06:39:47.711Z,16.50
2022-10-22T06:43:09.592Z,20.50
2022-10-22T06:46:31.836Z,19.58
2022-10-22T06:49:53.465Z,24.73
2022-10-22T06:53:16.162Z,22.40
2022-10-22T06:56:38.240Z,21.77
2022-10-22T06:59:59.798Z,20.38
2022-10-22T07:03:21.733Z,22.50
2022-10-22T07:06:43.542Z,18.55
2022-10-22T07:10:07.185Z,17.50
2022-10-22T07:13:28.636Z,20.15
2022-10-22T07:16:50.414Z,18.88
2022-10-22T07:20:12.862Z,20.85
2022-10-22T07:23:34.294Z,20.35
2022-10-22T07:26:57.485Z,20.80
2022-10-22T07:30:19.259Z,18.05
2022-10-22T07:33:41.752Z,16.10
2022-10-22T07:37:03.450Z,19.25
2022-10-22T07:40:25.148Z,18.27
2022-10-22T07:43:48.640Z,18.60
2022-10-22T07:47:10.643Z,24.77
2022-10-22T07:50:32.671Z,25.77
2022-10-22T07:53:54.577Z,26.42
2022-10-22T07:57:16.518Z,19.45
2022-10-22T08:00:39.066Z,18.77
2022-10-22T08:04:00.273Z,19.08
2022-10-22T08:07:22.068Z,15.68
2022-10-22T08:10:44.446Z,18.10
2022-10-22T08:14:05.979Z,19.42
2022-10-22T08:17:28.829Z,20.38
2022-10-22T08:20:51.903Z,17.35
2022-10-22T08:24:14.038Z,19.67
2022-10-22T08:27:38.620Z,16.50
2022-10-22T08:31:00.444Z,16.80
2022-10-22T08:34:23.134Z,17.05
2022-10-22T08:37:45.132Z,15.63
2022-10-22T08:41:13.581Z,21.83
2022-10-22T08:44:55.548Z,21.52
2022-10-22T08:48:32.086Z,21.00
2022-10-22T08:51:58.505Z,17.85
2022-10-22T08:55:20.876Z,20.83
2022-10-22T08:58:50.697Z,18.92
2022-10-22T09:02:25.342Z,19.33
2022-10-22T09:05:55.572Z,20.48
2022-10-22T09:09:19.784Z,17.75
2022-10-22T09:12:42.102Z,18.40
2022-10-22T09:16:16.258Z,21.77
2022-10-22T09:19:48.540Z,22.88
2022-10-22T09:23:33.002Z,19.25
2022-10-22T09:26:58.045Z,20.85
2022-10-22T09:30:22.133Z,17.75
2022-10-22T09:33:45.855Z,21.15
2022-10-22T09:37:09.365Z,20.20
2022-10-22T09:40:30.732Z,19.88
2022-10-22T09:43:53.965Z,23.08
2022-10-22T09:47:42.766Z,18.63
2022-10-22T09:51:12.184Z,22.58
2022-10-22T09:54:41.408Z,20.52
2022-10-22T09:58:03.028Z,18.52
2022-10-22T10:01:27.979Z,18.90
2022-10-22T10:04:51.512Z,16.42
2022-10-22T10:08:15.179Z,15.73
2022-10-22T10:11:44.549Z,17.30
2022-10-22T10:15:18.664Z,18.58
2022-10-22T10:18:53.646Z,14.98
2022-10-22T10:22:28.688Z,16.13
2022-10-22T10:25:58.776Z,17.15
2022-10-22T10:33:16.317Z,20.85
2022-10-22T10:36:47.735Z,18.73
2022-10-22T10:40:25.215Z,17.15
2022-10-22T10:44:03.043Z,20.45
2022-10-22T10:47:50.755Z,20.98
2022-10-22T10:51:27.261Z,18.08
2022-10-22T10:55:01.514Z,18.77
2022-10-22T10:58:31.539Z,21.45
2022-10-22T11:02:11.217Z,20.15
2022-10-22T11:05:38.939Z,18.85
2022-10-22T11:09:06.607Z,20.08
2022-10-22T11:12:34.398Z,16.38
2022-10-22T11:16:02.164Z,20.08
2022-10-22T11:19:50.088Z,22.25
2022-10-22T11:23:19.944Z,17.17
2022-10-22T11:26:48.759Z,21.08
2022-10-22T11:30:15.567Z,18.10
2022-10-22T11:33:45.857Z,26.52
2022-10-22T11:37:08.259Z,22.85
2022-10-22T11:40:36.064Z,25.70
2022-10-22T11:44:05.919Z,28.85
2022-10-22T11:47:32.965Z,27.38
2022-10-22T11:50:59.997Z,33.60
2022-10-22T11:54:33.410Z,31.23
2022-10-22T11:58:00.125Z,30.52
2022-10-22T12:01:30.347Z,29.00
2022-10-22T12:04:53.255Z,25.13
2022-10-22T12:08:21.856Z,31.52
2022-10-22T12:11:48.387Z,30.02
2022-10-22T12:15:25.144Z,28.05
2022-10-22T12:18:46.897Z,32.30
2022-10-22T12:22:17.829Z,27.95
2022-10-22T12:25:39.342Z,35.30
2022-10-22T12:29:02.042Z,33.92
2022-10-22T12:32:24.680Z,32.92
2022-10-22T12:35:49.048Z,30.52
2022-10-22T12:39:17.043Z,31.65
2022-10-22T12:42:38.768Z,29.65
2022-10-22T12:46:01.201Z,28.33
2022-10-22T12:49:26.628Z,27.98
2022-10-22T12:52:49.648Z,30.10
2022-10-22T12:56:16.363Z,28.73
2022-10-22T12:59:40.333Z,25.00
2022-10-22T13:03:06.344Z,25.45
2022-10-22T13:06:29.791Z,24.48
2022-10-22T13:09:59.363Z,24.58
2022-10-22T13:13:36.831Z,21.27
2022-10-22T13:17:07.411Z,26.70
2022-10-22T13:20:29.165Z,19.90
2022-10-22T13:23:54.751Z,20.33
2022-10-22T13:27:16.512Z,18.25
2022-10-22T13:30:40.877Z,21.45
2022-10-22T13:34:09.901Z,17.73
2022-10-22T13:37:35.603Z,15.23
2022-10-22T13:40:57.725Z,19.25
2022-10-22T13:44:19.982Z,18.88
2022-10-22T13:47:45.976Z,15.60
2022-10-22T13:51:14.702Z,18.80
2022-10-22T13:54:37.880Z,16.67
2022-10-22T13:58:04.888Z,16.67
2022-10-22T14:01:28.862Z,15.18
2022-10-22T14:04:53.090Z,16.20
2022-10-22T14:08:17.476Z,13.85
2022-10-22T14:11:39.019Z,20.17
2022-10-22T14:15:00.825Z,17.27
2022-10-22T14:18:27.334Z,17.70
2022-10-22T14:21:50.528Z,18.42
2022-10-22T14:25:15.973Z,17.00
2022-10-22T14:28:46.156Z,21.48
2022-10-22T14:32:21.241Z,17.58
2022-10-22T14:35:43.574Z,21.60
2022-10-22T14:39:06.832Z,23.92
2022-10-22T14:42:29.592Z,19.55
2022-10-22T14:45:51.958Z,17.67
2022-10-22T14:49:13.674Z,16.65
2022-10-22T14:52:35.499Z,15.63
2022-10-22T14:55:59.602Z,16.73
2022-10-22T14:59:21.187Z,14.35
2022-10-22T15:02:43.273Z,13.60
2022-10-22T15:06:05.925Z,19.45
2022-10-22T15:09:27.518Z,12.40
2022-10-22T15:12:50.715Z,13.45
2022-10-22T15:16:14.171Z,13.07
2022-10-22T15:19:35.585Z,14.70
2022-10-22T15:22:57.655Z,11.88
2022-10-22T15:26:19.315Z,16.45
2022-10-22T15:29:43.697Z,15.63
2022-10-22T15:33:05.561Z,22.40
2022-10-22T15:36:27.209Z,30.73
2022-10-22T15:39:49.584Z,36.33
2022-10-22T15:43:11.968Z,26.88
2022-10-22T15:46:36.322Z,25.63
2022-10-22T15:49:57.784Z,20.52
2022-10-22T15:53:19.722Z,19.17
2022-10-22T15:56:42.252Z,18.75
2022-10-22T16:00:03.621Z,18.20
2022-10-22T16:03:35.446Z,30.08
2022-10-22T16:06:58.418Z,19.80
2022-10-22T16:10:19.804Z,20.10
2022-10-22T16:13:41.053Z,20.63
2022-10-22T16:17:02.491Z,24.20
2022-10-22T16:20:25.732Z,17.10
2022-10-22T16:23:47.418Z,17.27
2022-10-22T16:27:09.402Z,21.88
2022-10-22T16:30:30.831Z,24.13
2022-10-22T16:33:52.488Z,17.38
2022-10-22T16:37:15.747Z,14.15
2022-10-22T16:40:37.523Z,12.02
2022-10-22T16:44:00.845Z,15.38
2022-10-22T16:47:22.307Z,16.63
2022-10-22T16:50:43.790Z,13.27
2022-10-22T16:54:09.737Z,15.57
2022-10-22T16:57:35.912Z,17.75
2022-10-22T17:00:57.748Z,14.13
2022-10-22T17:04:19.397Z,17.52
2022-10-22T17:07:40.512Z,20.10
2022-10-22T17:11:08.536Z,20.27
2022-10-22T17:14:29.872Z,12.25
2022-10-22T17:17:53.686Z,16.65
2022-10-22T17:21:15.936Z,20.75
2022-10-22T17:24:38.800Z,15.50
2022-10-22T17:28:01.705Z,17.80
2022-10-22T17:31:25.106Z,21.77
2022-10-22T17:34:46.640Z,23.25
2022-10-22T17:38:08.495Z,21.20
2022-10-22T17:41:31.949Z,20.13
2022-10-22T17:44:54.893Z,18.05
2022-10-22T17:48:16.259Z,16.20
2022-10-22T17:51:37.889Z,22.40
2022-10-22T17:54:59.648Z,18.02
2022-10-22T17:58:20.881Z,15.48
2022-10-22T18:01:45.658Z,21.70
2022-10-22T18:05:08.108Z,20.83
2022-10-22T18:08:29.646Z,17.20
2022-10-22T18:11:53.323Z,19.90
2022-10-22T18:15:15.027Z,16.25
2022-10-22T18:18:38.014Z,22.63
2022-10-22T18:22:00.585Z,24.42
2022-10-22T18:25:22.738Z,22.23
2022-10-22T18:28:44.064Z,22.13
2022-10-22T18:32:12.140Z,25.65
2022-10-22T18:35:36.132Z,24.48
2022-10-22T18:38:58.948Z,38.22
2022-10-22T18:42:20.281Z,32.22
2022-10-22T18:45:43.844Z,32.97
2022-10-22T18:49:06.932Z,30.50
2022-10-22T18:52:29.826Z,36.17
2022-10-22T18:55:51.203Z,42.28
2022-10-22T18:59:19.168Z,44.45
2022-10-22T19:02:41.149Z,39.17
2022-10-22T19:06:02.920Z,36.33
2022-10-22T19:09:26.921Z,40.50
2022-10-22T19:12:48.287Z,37.92
2022-10-22T19:16:13.519Z,40.75
2022-10-22T19:19:35.889Z,35.10
2022-10-22T19:22:57.507Z,36.10
2022-10-22T19:26:21.457Z,33.42
2022-10-22T19:29:44.721Z,35.67
2022-10-22T19:33:07.394Z,33.30
2022-10-22T19:36:30.143Z,31.88
2022-10-22T19:39:51.843Z,30.02
2022-10-22T19:43:18.867Z,33.60
2022-10-22T19:46:40.906Z,35.08
2022-10-22T19:50:02.364Z,38.45
2022-10-22T19:53:23.636Z,34.28
2022-10-22T19:56:46.709Z,36.05
2022-10-22T20:00:10.939Z,36.63
2022-10-22T20:03:32.642Z,37.38
2022-10-22T20:06:54.017Z,40.30
2022-10-22T20:10:16.166Z,43.33
2022-10-22T20:17:02.210Z,62.33
2022-10-22T20:20:26.392Z,56.35
2022-10-22T20:23:52.136Z,54.88
2022-10-22T20:27:14.681Z,48.95
2022-10-22T20:30:36.991Z,44.88
2022-10-22T20:34:01.816Z,43.75
2022-10-22T20:37:23.464Z,45.50
2022-10-22T20:40:45.658Z,49.65
2022-10-22T20:44:08.045Z,44.90
2022-10-22T20:47:39.226Z,46.45
2022-10-22T20:51:13.476Z,51.28
2022-10-22T20:54:34.937Z,51.45
2022-10-22T20:57:56.445Z,50.17
2022-10-22T21:01:21.808Z,47.97
2022-10-22T21:04:45.592Z,46.28
2022-10-22T21:08:10.395Z,47.92
2022-10-22T21:11:32.923Z,51.67
2022-10-22T21:14:55.331Z,48.33
2022-10-22T21:18:16.836Z,48.17
2022-10-22T21:21:38.838Z,39.90
2022-10-22T21:25:01.883Z,34.10
2022-10-22T21:28:23.926Z,35.13
2022-10-22T21:31:45.380Z,36.53
2022-10-22T21:35:07.685Z,38.25
2022-10-22T21:38:29.026Z,33.78
2022-10-22T21:41:52.165Z,35.97
2022-10-22T21:45:15.611Z,34.70
2022-10-22T21:48:40.418Z,29.70
2022-10-22T21:52:02.964Z,34.83
2022-10-22T21:55:24.722Z,40.20
2022-10-22T21:58:48.138Z,37.00
2022-10-22T22:02:09.499Z,40.70
2022-10-22T22:05:31.265Z,39.88
2022-10-22T22:08:54.754Z,33.40
2022-10-22T22:12:16.646Z,22.58
2022-10-22T22:15:39.200Z,18.90
2022-10-22T22:22:26.033Z,19.80
2022-10-22T22:25:47.375Z,21.70
2022-10-22T22:29:09.270Z,19.80
2022-10-22T22:32:32.824Z,14.45
2022-10-22T22:35:58.507Z,12.02
2022-10-22T22:39:21.655Z,25.33
2022-10-22T22:42:43.284Z,13.27
2022-10-22T22:46:06.505Z,12.73
2022-10-22T22:49:29.179Z,21.30
2022-10-22T22:52:50.530Z,17.33
2022-10-22T22:56:14.811Z,13.95
2022-10-22T22:59:36.633Z,14.60
2022-10-22T23:02:57.827Z,13.98
2022-10-22T23:06:20.565Z,12.32
2022-10-22T23:09:41.827Z,15.77
2022-10-22T23:13:03.428Z,17.73
2022-10-22T23:16:27.078Z,17.77
2022-10-22T23:19:48.566Z,14.18
2022-10-22T23:23:11.218Z,10.02
2022-10-22T23:26:34.988Z,11.73
2022-10-22T23:29:56.190Z,11.13
2022-10-22T23:33:19.299Z,16.60
2022-10-22T23:36:40.960Z,15.00
2022-10-22T23:40:04.546Z,13.82
2022-10-22T23:43:27.491Z,14.15
2022-10-22T23:46:49.266Z,13.27
2022-10-22T23:50:12.979Z,13.68
2022-10-22T23:53:35.054Z,12.50
2022-10-22T23:56:57.906Z,17.83
